createdAt,value
2023-10-03T00:00:57.078Z,15.57
2023-10-03T00:03:25.321Z,15.81
2023-10-03T00:05:53.672Z,16.10
2023-10-03T00:08:23.685Z,16.59
2023-10-03T00:10:51.628Z,17.13
2023-10-03T00:13:20.870Z,17.28
2023-10-03T00:15:49.483Z,17.36
2023-10-03T00:18:17.622Z,17.68
2023-10-03T00:20:45.631Z,17.94
2023-10-03T00:23:13.577Z,18.15
2023-10-03T00:25:42.768Z,18.39
2023-10-03T00:28:12.116Z,18.36
2023-10-03T00:30:41.593Z,18.50
2023-10-03T00:33:11.929Z,18.65
2023-10-03T00:35:41.756Z,18.24
2023-10-03T00:38:15.351Z,17.93
2023-10-03T00:40:50.016Z,17.79
2023-10-03T00:43:19.028Z,17.68
2023-10-03T00:45:46.852Z,17.29
2023-10-03T00:48:14.895Z,17.11
2023-10-03T00:53:12.233Z,16.99
2023-10-03T00:55:40.234Z,17.42
2023-10-03T00:58:19.141Z,17.45
2023-10-03T01:00:47.460Z,17.62
2023-10-03T01:03:26.183Z,17.66
2023-10-03T01:05:54.645Z,17.83
2023-10-03T01:08:24.356Z,18.05
2023-10-03T01:10:54.384Z,18.19
2023-10-03T01:13:25.635Z,18.31
2023-10-03T01:15:53.326Z,18.33
2023-10-03T01:18:22.502Z,18.35
2023-10-03T01:20:53.566Z,18.31
2023-10-03T01:23:23.216Z,18.35
2023-10-03T01:25:52.638Z,18.29
2023-10-03T01:28:20.369Z,18.22
2023-10-03T01:30:48.129Z,18.30
2023-10-03T01:33:15.991Z,18.33
2023-10-03T01:35:43.804Z,18.25
2023-10-03T01:38:12.006Z,18.41
2023-10-03T01:40:42.842Z,18.33
2023-10-03T01:43:10.781Z,18.19
2023-10-03T01:45:38.511Z,18.24
2023-10-03T01:48:08.815Z,18.38
2023-10-03T01:50:37.172Z,18.42
2023-10-03T01:53:06.832Z,18.19
2023-10-03T01:55:35.065Z,18.30
2023-10-03T01:58:06.254Z,18.39
2023-10-03T02:00:36.553Z,18.19
2023-10-03T02:03:06.319Z,18.02
2023-10-03T02:05:35.736Z,18.18
2023-10-03T02:08:08.886Z,18.29
2023-10-03T02:10:36.967Z,18.25
2023-10-03T02:13:10.618Z,18.62
2023-10-03T02:15:40.376Z,18.67
2023-10-03T02:18:10.141Z,18.77
2023-10-03T02:20:39.903Z,18.63
2023-10-03T02:23:07.573Z,18.49
2023-10-03T02:25:38.454Z,18.60
2023-10-03T02:28:08.029Z,18.70
2023-10-03T02:30:35.880Z,18.78
2023-10-03T02:33:08.774Z,18.74
2023-10-03T02:35:39.748Z,18.88
2023-10-03T02:38:10.550Z,18.71
2023-10-03T02:40:41.328Z,18.18
2023-10-03T02:43:13.063Z,17.98
2023-10-03T02:45:44.146Z,18.03
2023-10-03T02:48:17.020Z,17.96
2023-10-03T02:50:47.653Z,18.04
2023-10-03T02:53:21.300Z,18.20
2023-10-03T02:55:49.640Z,18.35
2023-10-03T02:58:21.088Z,18.12
2023-10-03T03:00:51.361Z,18.01
2023-10-03T03:03:19.384Z,17.78
2023-10-03T03:05:50.121Z,17.51
2023-10-03T03:08:25.188Z,17.36
2023-10-03T03:10:56.912Z,17.87
2023-10-03T03:13:26.932Z,18.11
2023-10-03T03:15:55.488Z,18.37
2023-10-03T03:18:24.764Z,18.40
2023-10-03T03:20:58.329Z,18.37
2023-10-03T03:23:36.291Z,18.47
2023-10-03T03:26:19.628Z,18.44
2023-10-03T03:28:50.725Z,18.40
2023-10-03T03:31:27.323Z,18.41
2023-10-03T03:33:58.018Z,18.31
2023-10-03T03:36:30.874Z,18.30
2023-10-03T03:38:59.609Z,18.39
2023-10-03T03:41:27.471Z,18.35
2023-10-03T03:43:56.518Z,18.10
2023-10-03T03:46:24.201Z,18.04
2023-10-03T03:48:51.834Z,17.80
2023-10-03T03:51:20.169Z,17.64
2023-10-03T03:53:48.564Z,17.99
2023-10-03T03:56:17.531Z,18.59
2023-10-03T03:58:46.201Z,18.55
2023-10-03T04:01:20.930Z,18.29
2023-10-03T04:03:51.297Z,17.93
2023-10-03T04:06:20.012Z,17.29
2023-10-03T04:09:04.167Z,17.71
2023-10-03T04:11:35.775Z,18.01
2023-10-03T04:14:06.089Z,17.98
2023-10-03T04:16:41.585Z,17.58
2023-10-03T04:19:11.526Z,17.63
2023-10-03T04:21:41.439Z,17.44
2023-10-03T04:24:11.496Z,17.42
2023-10-03T04:26:41.388Z,17.56
2023-10-03T04:29:12.218Z,17.80
2023-10-03T04:31:41.541Z,18.30
2023-10-03T04:34:12.402Z,18.27
2023-10-03T04:36:40.176Z,18.02
2023-10-03T04:39:11.316Z,17.60
2023-10-03T04:41:44.349Z,17.39
2023-10-03T04:44:17.834Z,17.83
2023-10-03T04:46:47.622Z,17.89
2023-10-03T04:49:15.690Z,18.00
2023-10-03T04:51:47.590Z,17.33
2023-10-03T04:54:17.783Z,17.10
2023-10-03T04:56:46.431Z,17.18
2023-10-03T04:59:14.460Z,17.23
2023-10-03T05:01:42.222Z,17.49
2023-10-03T05:04:13.764Z,17.34
2023-10-03T05:06:44.029Z,17.61
2023-10-03T05:09:12.479Z,17.96
2023-10-03T05:11:40.286Z,17.41
2023-10-03T05:14:08.685Z,17.42
2023-10-03T05:16:36.352Z,17.47
2023-10-03T05:19:05.575Z,17.76
2023-10-03T05:21:34.638Z,17.69
2023-10-03T05:24:02.390Z,17.60
2023-10-03T05:26:30.959Z,17.82
2023-10-03T05:28:59.954Z,17.96
2023-10-03T05:31:27.711Z,17.96
2023-10-03T05:33:55.463Z,17.40
2023-10-03T05:36:23.714Z,17.60
2023-10-03T05:38:54.633Z,17.82
2023-10-03T05:41:22.984Z,17.64
2023-10-03T05:43:50.653Z,17.88
2023-10-03T05:46:18.535Z,18.14
2023-10-03T05:48:46.616Z,18.20
2023-10-03T05:51:14.604Z,18.25
2023-10-03T05:53:43.248Z,18.37
2023-10-03T05:56:12.686Z,18.36
2023-10-03T05:58:40.380Z,18.58
2023-10-03T06:01:08.065Z,18.65
2023-10-03T06:03:37.860Z,18.66
2023-10-03T06:06:05.909Z,18.36
2023-10-03T06:08:34.321Z,18.65
2023-10-03T06:11:04.418Z,18.74
2023-10-03T06:13:33.593Z,18.56
2023-10-03T06:16:01.439Z,18.72
2023-10-03T06:18:29.478Z,18.87
2023-10-03T06:20:59.154Z,18.67
2023-10-03T06:23:27.345Z,18.82
2023-10-03T06:25:55.094Z,18.96
2023-10-03T06:28:25.673Z,19.10
2023-10-03T06:30:55.592Z,19.30
2023-10-03T06:33:22.423Z,19.12
2023-10-03T06:35:51.641Z,19.11
2023-10-03T06:38:20.423Z,19.56
2023-10-03T06:40:48.180Z,19.60
2023-10-03T06:43:15.824Z,19.79
2023-10-03T06:45:44.036Z,19.96
2023-10-03T06:48:13.147Z,20.08
2023-10-03T06:50:42.170Z,20.13
2023-10-03T06:53:10.217Z,19.74
2023-10-03T06:55:37.902Z,19.92
2023-10-03T06:58:06.116Z,20.12
2023-10-03T07:00:34.244Z,20.29
2023-10-03T07:03:02.079Z,20.18
2023-10-03T07:05:31.371Z,20.07
2023-10-03T07:07:59.835Z,20.26
2023-10-03T07:10:27.601Z,20.08
2023-10-03T07:12:55.515Z,20.21
2023-10-03T07:15:23.502Z,20.23
2023-10-03T07:17:51.563Z,20.26
2023-10-03T07:20:19.351Z,20.19
2023-10-03T07:22:48.552Z,20.73
2023-10-03T07:25:17.360Z,20.92
2023-10-03T07:27:46.628Z,21.37
2023-10-03T07:30:15.868Z,21.60
2023-10-03T07:32:43.698Z,21.45
2023-10-03T07:35:13.885Z,21.46
2023-10-03T07:37:42.050Z,21.62
2023-10-03T07:40:11.364Z,21.68
2023-10-03T07:42:40.229Z,22.31
2023-10-03T07:45:08.796Z,22.33
2023-10-03T07:47:38.616Z,22.35
2023-10-03T07:50:07.198Z,22.62
2023-10-03T07:52:35.854Z,22.82
2023-10-03T07:55:06.507Z,22.61
2023-10-03T07:57:35.448Z,22.55
2023-10-03T08:00:06.916Z,22.51
2023-10-03T08:02:35.346Z,22.49
2023-10-03T08:05:03.464Z,22.56
2023-10-03T08:07:32.689Z,22.63
2023-10-03T08:10:03.878Z,22.62
2023-10-03T08:12:33.196Z,22.53
2023-10-03T08:15:02.327Z,22.59
2023-10-03T08:17:32.713Z,22.63
2023-10-03T08:20:05.702Z,22.74
2023-10-03T08:22:33.407Z,22.59
2023-10-03T08:25:01.705Z,22.81
2023-10-03T08:27:31.617Z,22.70
2023-10-03T08:30:01.554Z,22.72
2023-10-03T08:32:30.755Z,22.63
2023-10-03T08:34:58.415Z,22.77
2023-10-03T08:37:26.252Z,22.74
2023-10-03T08:39:54.097Z,22.74
2023-10-03T08:42:22.665Z,22.76
2023-10-03T08:44:57.556Z,22.99
2023-10-03T08:47:30.829Z,22.88
2023-10-03T08:50:12.201Z,22.95
2023-10-03T08:52:45.312Z,22.98
2023-10-03T08:55:16.060Z,22.92
2023-10-03T08:57:49.041Z,22.85
2023-10-03T09:00:16.791Z,22.83
2023-10-03T09:02:49.827Z,22.84
2023-10-03T09:05:22.354Z,22.79
2023-10-03T09:07:50.352Z,22.79
2023-10-03T09:10:25.192Z,22.65
2023-10-03T09:12:53.012Z,22.70
2023-10-03T09:15:23.677Z,22.74
2023-10-03T09:17:52.551Z,22.80
2023-10-03T09:20:26.091Z,22.74
2023-10-03T09:22:55.726Z,22.80
2023-10-03T09:25:23.541Z,22.72
2023-10-03T09:28:00.335Z,22.81
2023-10-03T09:30:38.801Z,22.92
2023-10-03T09:33:06.921Z,23.05
2023-10-03T09:35:36.069Z,22.94
2023-10-03T09:38:07.289Z,22.93
2023-10-03T09:40:50.905Z,22.96
2023-10-03T09:43:20.672Z,23.27
2023-10-03T09:45:48.808Z,23.05
2023-10-03T09:48:19.858Z,23.28
2023-10-03T09:50:56.932Z,23.33
2023-10-03T09:53:29.071Z,23.72
2023-10-03T09:55:59.793Z,23.86
2023-10-03T09:58:32.358Z,24.20
2023-10-03T10:01:02.901Z,24.46
2023-10-03T10:03:34.937Z,24.36
2023-10-03T10:06:17.432Z,24.35
2023-10-03T10:08:48.237Z,24.50
2023-10-03T10:11:22.743Z,24.52
2023-10-03T10:14:03.498Z,24.73
2023-10-03T10:16:32.385Z,24.75
2023-10-03T10:19:05.647Z,24.86
2023-10-03T10:21:38.513Z,24.88
2023-10-03T10:24:26.624Z,24.60
2023-10-03T10:26:54.617Z,24.01
2023-10-03T10:29:22.695Z,23.77
2023-10-03T10:31:59.039Z,23.69
2023-10-03T10:34:36.884Z,23.87
2023-10-03T10:37:16.870Z,23.79
2023-10-03T10:40:11.650Z,23.64
2023-10-03T10:43:01.757Z,23.58
2023-10-03T10:45:39.082Z,23.86
2023-10-03T10:48:09.117Z,23.80
2023-10-03T10:50:54.973Z,23.60
2023-10-03T10:53:24.045Z,23.59
2023-10-03T10:55:51.968Z,23.78
2023-10-03T10:58:20.645Z,24.06
2023-10-03T11:00:48.395Z,24.21
2023-10-03T11:03:16.218Z,24.16
2023-10-03T11:05:45.858Z,24.08
2023-10-03T11:08:13.520Z,23.77
2023-10-03T11:10:53.898Z,23.54
2023-10-03T11:13:21.984Z,23.35
2023-10-03T11:15:50.112Z,23.42
2023-10-03T11:18:18.002Z,23.45
2023-10-03T11:20:46.353Z,23.48
2023-10-03T11:23:17.564Z,23.58
2023-10-03T11:25:55.469Z,23.53
2023-10-03T11:28:24.497Z,23.76
2023-10-03T11:31:04.696Z,24.07
2023-10-03T11:33:33.296Z,24.39
2023-10-03T11:36:01.200Z,24.73
2023-10-03T11:38:30.187Z,24.99
2023-10-03T11:41:00.190Z,24.96
2023-10-03T11:43:27.982Z,24.93
2023-10-03T11:46:02.877Z,25.04
2023-10-03T11:48:35.183Z,24.99
2023-10-03T11:51:02.896Z,24.98
2023-10-03T11:53:38.219Z,25.31
2023-10-03T11:56:07.450Z,25.37
2023-10-03T11:58:35.109Z,25.10
2023-10-03T12:01:02.920Z,24.79
2023-10-03T12:03:31.483Z,24.73
2023-10-03T12:06:03.457Z,24.81
2023-10-03T12:08:32.223Z,24.91
2023-10-03T12:10:59.867Z,25.39
2023-10-03T12:13:28.898Z,25.21
2023-10-03T12:15:56.570Z,25.55
2023-10-03T12:18:27.150Z,25.71
2023-10-03T12:20:55.842Z,25.70
2023-10-03T12:23:23.847Z,25.85
2023-10-03T12:25:51.476Z,25.76
2023-10-03T12:28:19.088Z,25.58
2023-10-03T12:30:59.351Z,25.51
2023-10-03T12:33:27.121Z,25.49
2023-10-03T12:35:55.037Z,25.51
2023-10-03T12:38:22.702Z,25.85
2023-10-03T12:40:50.444Z,26.00
2023-10-03T12:43:18.233Z,25.90
2023-10-03T12:45:46.639Z,26.01
2023-10-03T12:48:15.726Z,25.86
2023-10-03T12:50:44.027Z,25.49
2023-10-03T12:53:12.398Z,25.62
2023-10-03T12:55:40.139Z,25.57
2023-10-03T12:58:07.797Z,25.52
2023-10-03T13:00:37.633Z,25.72
2023-10-03T13:03:06.225Z,25.61
2023-10-03T13:05:36.429Z,25.32
2023-10-03T13:08:04.505Z,25.43
2023-10-03T13:10:35.384Z,25.11
2023-10-03T13:13:05.232Z,25.04
2023-10-03T13:15:38.589Z,25.00
2023-10-03T13:18:08.265Z,25.14
2023-10-03T13:20:37.441Z,24.96
2023-10-03T13:23:05.961Z,25.16
2023-10-03T13:25:33.640Z,25.38
2023-10-03T13:28:01.311Z,25.33
2023-10-03T13:30:29.820Z,24.99
2023-10-03T13:32:58.937Z,25.00
2023-10-03T13:35:28.706Z,25.01
2023-10-03T13:37:57.801Z,25.13
2023-10-03T13:40:25.926Z,24.94
2023-10-03T13:42:53.929Z,24.76
2023-10-03T13:45:21.727Z,24.56
2023-10-03T13:47:52.797Z,24.53
2023-10-03T13:50:20.631Z,24.47
2023-10-03T13:52:48.960Z,24.24
2023-10-03T13:55:21.290Z,24.35
2023-10-03T13:57:51.779Z,24.27
2023-10-03T14:00:20.262Z,24.31
2023-10-03T14:02:49.332Z,24.26
2023-10-03T14:05:17.545Z,24.37
2023-10-03T14:07:45.737Z,24.40
2023-10-03T14:10:15.763Z,24.36
2023-10-03T14:12:46.498Z,24.34
2023-10-03T14:15:15.291Z,24.47
2023-10-03T14:17:43.298Z,24.47
2023-10-03T14:20:14.104Z,24.57
2023-10-03T14:22:42.316Z,24.48
2023-10-03T14:25:20.147Z,24.47
2023-10-03T14:27:49.167Z,24.28
2023-10-03T14:30:17.165Z,24.13
2023-10-03T14:32:45.144Z,23.96
2023-10-03T14:35:14.127Z,23.92
2023-10-03T14:37:41.921Z,23.87
2023-10-03T14:40:17.588Z,23.90
2023-10-03T14:42:50.902Z,23.69
2023-10-03T14:45:23.552Z,23.53
2023-10-03T14:47:51.445Z,23.42
2023-10-03T14:50:20.682Z,23.43
2023-10-03T14:52:48.403Z,23.39
2023-10-03T14:55:18.014Z,23.43
2023-10-03T14:57:46.570Z,23.41
2023-10-03T15:00:18.861Z,23.56
2023-10-03T15:02:53.337Z,23.68
2023-10-03T15:05:23.071Z,23.30
2023-10-03T15:07:50.797Z,23.10
2023-10-03T15:10:18.649Z,22.91
2023-10-03T15:12:46.423Z,22.78
2023-10-03T15:15:16.075Z,22.73
2023-10-03T15:17:43.978Z,22.64
2023-10-03T15:22:42.930Z,22.46
2023-10-03T15:25:10.926Z,22.29
2023-10-03T15:27:38.620Z,22.35
2023-10-03T15:30:10.000Z,22.30
2023-10-03T15:32:37.823Z,22.29
2023-10-03T15:35:08.747Z,22.35
2023-10-03T15:37:37.233Z,22.49
2023-10-03T15:40:11.658Z,22.44
2023-10-03T15:42:41.872Z,22.43
2023-10-03T15:45:15.165Z,22.40
2023-10-03T15:47:45.527Z,22.37
2023-10-03T15:50:13.332Z,22.54
2023-10-03T15:52:43.659Z,22.32
2023-10-03T15:55:15.458Z,22.23
2023-10-03T15:57:43.458Z,22.22
2023-10-03T16:00:12.937Z,22.00
2023-10-03T16:02:43.418Z,21.96
2023-10-03T16:05:15.069Z,22.10
2023-10-03T16:07:42.919Z,21.91
2023-10-03T16:10:10.720Z,22.09
2023-10-03T16:12:40.696Z,21.88
2023-10-03T16:15:09.805Z,21.51
2023-10-03T16:17:41.638Z,20.35
2023-10-03T16:20:13.018Z,19.71
2023-10-03T16:22:41.476Z,19.31
2023-10-03T16:25:12.223Z,19.38
2023-10-03T16:27:41.457Z,18.99
2023-10-03T16:30:09.639Z,18.92
2023-10-03T16:32:37.547Z,18.91
2023-10-03T16:35:05.501Z,19.10
2023-10-03T16:37:33.316Z,18.96
2023-10-03T16:40:05.231Z,18.98
2023-10-03T16:42:32.998Z,18.92
2023-10-03T16:45:02.056Z,19.00
2023-10-03T16:47:32.604Z,18.90
2023-10-03T16:50:01.140Z,18.43
2023-10-03T16:52:31.784Z,18.39
2023-10-03T16:54:59.913Z,18.64
2023-10-03T16:57:27.582Z,18.51
2023-10-03T16:59:55.522Z,18.21
2023-10-03T17:02:24.596Z,18.20
2023-10-03T17:04:53.785Z,17.93
2023-10-03T17:07:21.501Z,16.91
2023-10-03T17:09:50.101Z,16.35
2023-10-03T17:12:21.730Z,16.28
2023-10-03T17:14:50.420Z,16.09
2023-10-03T17:17:18.177Z,16.10
2023-10-03T17:19:47.240Z,16.13
2023-10-03T17:22:14.851Z,16.39
2023-10-03T17:24:42.466Z,16.18
2023-10-03T17:27:10.146Z,16.25
2023-10-03T17:29:39.050Z,16.24
2023-10-03T17:32:06.899Z,16.17
2023-10-03T17:34:36.115Z,16.17
2023-10-03T17:37:06.864Z,16.21
2023-10-03T17:39:37.417Z,16.23
2023-10-03T17:42:07.381Z,16.02
2023-10-03T17:44:35.744Z,16.09
2023-10-03T17:47:04.411Z,16.21
2023-10-03T17:49:32.821Z,16.35
2023-10-03T17:52:05.252Z,16.10
2023-10-03T17:54:34.384Z,16.20
2023-10-03T17:57:03.776Z,16.14
2023-10-03T17:59:32.406Z,15.90
2023-10-03T18:02:00.138Z,15.96
2023-10-03T18:04:27.904Z,16.20
2023-10-03T18:06:55.680Z,16.09
2023-10-03T18:09:26.791Z,15.92
2023-10-03T18:11:56.925Z,15.98
2023-10-03T18:14:25.243Z,15.70
2023-10-03T18:16:52.995Z,15.80
2023-10-03T18:19:20.858Z,15.78
2023-10-03T18:21:48.923Z,15.70
2023-10-03T18:24:16.962Z,15.89
2023-10-03T18:26:46.065Z,16.07
2023-10-03T18:29:17.054Z,15.96
2023-10-03T18:31:45.934Z,15.85
2023-10-03T18:34:13.602Z,16.06
2023-10-03T18:36:44.353Z,16.03
2023-10-03T18:39:13.694Z,16.25
2023-10-03T18:41:41.517Z,15.80
2023-10-03T18:44:15.749Z,15.85
2023-10-03T18:46:44.920Z,16.03
2023-10-03T18:49:13.954Z,15.90
2023-10-03T18:51:41.749Z,15.94
2023-10-03T18:54:09.432Z,16.15
2023-10-03T18:56:37.082Z,16.02
2023-10-03T18:59:05.081Z,16.18
2023-10-03T19:01:48.643Z,16.28
2023-10-03T19:04:17.194Z,16.02
2023-10-03T19:06:45.095Z,15.94
2023-10-03T19:09:14.719Z,15.57
2023-10-03T19:11:44.751Z,15.44
2023-10-03T19:14:12.419Z,15.47
2023-10-03T19:16:41.512Z,15.35
2023-10-03T19:19:15.309Z,15.15
2023-10-03T19:21:45.737Z,15.21
2023-10-03T19:24:14.371Z,15.12
2023-10-03T19:26:44.699Z,15.07
2023-10-03T19:29:12.772Z,15.04
2023-10-03T19:31:42.090Z,15.13
2023-10-03T19:34:10.091Z,14.38
2023-10-03T19:36:41.894Z,14.14
2023-10-03T19:39:10.782Z,14.10
2023-10-03T19:41:40.108Z,13.86
2023-10-03T19:44:08.965Z,13.69
2023-10-03T19:46:36.972Z,13.74
2023-10-03T19:49:10.163Z,13.72
2023-10-03T19:51:40.323Z,13.65
2023-10-03T19:54:11.022Z,13.67
2023-10-03T19:56:39.028Z,13.68
2023-10-03T19:59:07.227Z,13.66
2023-10-03T20:01:35.118Z,13.45
2023-10-03T20:04:05.198Z,13.42
2023-10-03T20:06:34.507Z,13.45
2023-10-03T20:09:04.296Z,13.47
2023-10-03T20:11:33.392Z,13.36
2023-10-03T20:14:01.934Z,13.32
2023-10-03T20:16:31.319Z,13.65
2023-10-03T20:19:00.949Z,13.64
2023-10-03T20:21:28.831Z,13.68
2023-10-03T20:24:25.147Z,13.29
2023-10-03T20:26:54.249Z,13.22
2023-10-03T20:29:22.128Z,13.17
2023-10-03T20:31:49.980Z,13.20
2023-10-03T20:34:18.478Z,13.16
2023-10-03T20:36:46.356Z,13.43
2023-10-03T20:39:15.621Z,13.41
2023-10-03T20:41:44.881Z,13.26
2023-10-03T20:44:12.707Z,13.16
2023-10-03T20:46:40.573Z,13.04
2023-10-03T20:49:08.489Z,13.00
2023-10-03T20:51:36.381Z,13.04
2023-10-03T20:54:04.469Z,12.97
2023-10-03T20:56:33.019Z,13.27
2023-10-03T20:59:02.207Z,12.79
2023-10-03T21:01:30.485Z,12.83
2023-10-03T21:03:59.515Z,12.77
2023-10-03T21:06:27.910Z,12.62
2023-10-03T21:08:56.096Z,12.87
2023-10-03T21:11:26.103Z,12.98
2023-10-03T21:13:54.119Z,12.82
2023-10-03T21:16:23.352Z,12.75
2023-10-03T21:18:52.854Z,12.60
2023-10-03T21:21:20.732Z,12.48
2023-10-03T21:23:48.755Z,12.42
2023-10-03T21:26:16.627Z,12.40
2023-10-03T21:28:44.497Z,12.38
2023-10-03T21:31:12.337Z,12.25
2023-10-03T21:33:41.623Z,12.26
2023-10-03T21:36:09.790Z,12.31
2023-10-03T21:38:37.673Z,12.32
2023-10-03T21:41:05.519Z,12.30
2023-10-03T21:43:33.383Z,12.45
2023-10-03T21:46:01.804Z,12.28
2023-10-03T21:48:29.865Z,12.24
2023-10-03T21:51:04.137Z,12.47
2023-10-03T21:53:32.016Z,12.63
2023-10-03T21:55:59.878Z,12.42
2023-10-03T21:58:27.702Z,12.52
2023-10-03T22:01:03.013Z,12.33
2023-10-03T22:03:31.731Z,12.66
2023-10-03T22:05:59.695Z,12.67
2023-10-03T22:08:29.538Z,12.53
2023-10-03T22:10:58.382Z,12.57
2023-10-03T22:13:28.368Z,12.82
2023-10-03T22:15:56.920Z,12.70
2023-10-03T22:18:24.936Z,12.61
2023-10-03T22:20:53.200Z,12.65
2023-10-03T22:23:22.096Z,12.61
2023-10-03T22:25:51.416Z,12.77
2023-10-03T22:28:19.391Z,12.74
2023-10-03T22:30:48.215Z,12.89
2023-10-03T22:33:16.148Z,12.70
2023-10-03T22:35:44.278Z,12.63
2023-10-03T22:38:12.118Z,12.70
2023-10-03T22:40:40.874Z,12.79
2023-10-03T22:43:10.161Z,12.70
2023-10-03T22:45:38.026Z,12.53
2023-10-03T22:48:06.911Z,12.62
2023-10-03T22:50:34.924Z,12.46
2023-10-03T22:53:03.555Z,12.34
2023-10-03T22:55:31.361Z,12.43
2023-10-03T22:57:59.267Z,12.43
2023-10-03T23:00:30.486Z,12.37
2023-10-03T23:03:00.043Z,12.45
2023-10-03T23:05:28.412Z,12.21
2023-10-03T23:07:56.257Z,12.02
2023-10-03T23:10:25.009Z,12.16
2023-10-03T23:12:52.926Z,12.16
2023-10-03T23:15:22.014Z,12.09
2023-10-03T23:17:51.788Z,12.15
2023-10-03T23:20:21.332Z,12.04
2023-10-03T23:22:50.003Z,12.05
2023-10-03T23:25:17.907Z,12.14
2023-10-03T23:27:45.755Z,11.90
2023-10-03T23:30:14.214Z,11.90
2023-10-03T23:32:42.146Z,11.88
2023-10-03T23:35:11.650Z,11.68
2023-10-03T23:37:39.934Z,11.63
2023-10-03T23:40:14.737Z,11.69
2023-10-03T23:42:44.172Z,11.57
2023-10-03T23:45:13.053Z,11.53
2023-10-03T23:47:41.125Z,11.58
2023-10-03T23:50:12.552Z,11.50
2023-10-03T23:52:41.731Z,11.60
2023-10-03T23:55:13.854Z,11.67
2023-10-03T23:57:43.580Z,11.72
